Data for 12/24/2015

Time Sea-Level Adjusted Pressure Absolute Pressure Temperature Relative Humidity Dew Point   
(mb) (inHg) (mb) (inHg) (C) (F) (%) (C) (F)
00:05 1003 29.62 832 24.57 -5.7 21.8 63 -11.6 11.1
00:10 1003 29.62 832 24.57 -5.6 22 62 -11.8 10.7
00:15 1003 29.62 832 24.57 -5.4 22.3 62 -11.5 11.3
00:20 1003 29.62 832 24.57 -5.4 22.3 64 -11.2 11.8
00:25 1003 29.62 832 24.57 -5.6 22 65 -11.1 11.9
00:30 1003 29.62 832 24.57 -5.6 22 61 -11.9 10.6
00:35 1003 29.62 832 24.57 -5.4 22.3 63 -11.4 11.5
00:40 1003 29.62 832 24.57 -5.5 22.2 61 -11.8 10.8
00:45 1003 29.62 832 24.57 -5.7 21.8 66 -11 12.2
00:50 1003 29.62 832 24.57 -5.8 21.5 59 -12.6 9.3
00:55 1003 29.62 832 24.57 -5.3 22.5 55 -12.9 8.8
01:00 1003 29.62 832 24.57 -4.8 23.4 51 -13.4 7.9
01:05 1003 29.62 832 24.57 -4.3 24.2 49 -13.4 7.9
01:10 1003 29.62 832 24.57 -4.3 24.3 50 -13.2 8.3
01:15 1003 29.62 832 24.57 -4.3 24.3 48 -13.6 7.4
01:20 1003 29.62 832 24.57 -4.3 24.2 49 -13.5 7.8
01:25 1003 29.62 832 24.57 -4.4 24 49 -13.6 7.6
01:30 1003 29.62 832 24.57 -4.4 24.1 47 -14.1 6.7
01:35 1003 29.62 832 24.57 -4.2 24.4 46 -14.1 6.6
01:40 1003 29.62 832 24.57 -4.2 24.4 47 -13.8 7.2
01:45 1003 29.62 832 24.57 -4.3 24.3 47 -14.1 6.7
01:50 1003 29.62 832 24.57 -4.2 24.4 47 -13.9 7
01:55 1003 29.62 832 24.57 -4.2 24.4 46 -14.2 6.4
02:00 1003 29.62 832 24.57 -4.3 24.3 45 -14.4 6.1
02:05 1003 29.62 832 24.57 -4.2 24.4 46 -14.4 6.2
02:10 1003 29.62 832 24.57 -4.1 24.5 44 -14.7 5.6
02:15 1003 29.62 832 24.57 -4.1 24.6 45 -14.3 6.2
02:20 1003 29.62 832 24.57 -4.3 24.3 46 -14.2 6.5
02:25 1003 29.62 832 24.57 -4.3 24.3 44 -14.8 5.4
02:30 1003 29.62 832 24.57 -4.2 24.5 44 -14.8 5.4
02:35 1003 29.62 832 24.57 -4.3 24.3 45 -14.5 5.9
02:40 1003 29.62 832 24.57 -4.5 23.9 51 -13.1 8.4
02:45 1003 29.62 832 24.57 -4.9 23.2 51 -13.6 7.4
02:50 1003 29.62 832 24.57 -5.1 22.8 50 -14 6.7
02:55 1003 29.62 832 24.57 -5.1 22.8 51 -13.7 7.3
03:00 1003 29.62 832 24.57 -5.1 22.8 54 -13.2 8.3
03:05 1003 29.62 832 24.57 -5.6 21.9 56 -13 8.6
03:10 1003 29.62 832 24.57 -5.8 21.5 56 -13.2 8.3
03:15 1003 29.62 832 24.57 -5.8 21.6 54 -13.7 7.4
03:20 1003 29.62 832 24.57 -5.7 21.8 54 -13.6 7.6
03:25 1003 29.62 832 24.57 -5.7 21.8 58 -12.6 9.3
03:30 1003 29.62 833 24.6 -5.8 21.5 58 -12.8 8.9
03:35 1003 29.62 833 24.6 -5.8 21.6 57 -13 8.6
03:40 1003 29.62 833 24.6 -5.7 21.8 57 -13 8.6
03:45 1003 29.62 833 24.6 -5.6 21.9 56 -13.1 8.4
03:50 1004 29.65 833 24.6 -5.7 21.8 58 -12.7 9.2
03:55 1004 29.65 833 24.6 -5.8 21.5 57 -13.1 8.4
04:00 1004 29.65 833 24.6 -5.7 21.7 56 -13.2 8.2
04:05 1004 29.65 833 24.6 -5.8 21.6 58 -12.7 9.2
04:10 1004 29.65 833 24.6 -6 21.2 61 -12.3 9.9
04:15 1004 29.65 833 24.6 -6.3 20.7 61 -12.7 9.1
04:20 1004 29.65 833 24.6 -6.1 21 59 -12.9 8.8
04:25 1004 29.65 833 24.6 -6 21.2 59 -12.7 9.1
04:30 1004 29.65 833 24.6 -6 21.2 58 -12.9 8.7
04:35 1004 29.65 833 24.6 -5.9 21.3 58 -12.9 8.8
04:40 1004 29.65 833 24.6 -6 21.2 59 -12.9 8.9
04:45 1003 29.62 833 24.6 -6.1 21.1 57 -13.2 8.2
04:50 1004 29.65 833 24.6 -6 21.3 58 -12.9 8.8
04:55 1003 29.62 833 24.6 -5.9 21.4 55 -13.5 7.6
05:00 1003 29.62 833 24.6 -5.7 21.7 55 -13.4 8
05:05 1004 29.65 833 24.6 -5.7 21.7 57 -13.1 8.5
05:10 1004 29.65 833 24.6 -6 21.1 57 -13.2 8.2
05:15 1004 29.65 833 24.6 -6.1 21 56 -13.5 7.7
05:20 1004 29.65 833 24.6 -6.1 21 56 -13.6 7.5
05:25 1004 29.65 833 24.6 -6.1 21.1 54 -13.9 6.9
05:30 1004 29.65 833 24.6 -6 21.1 55 -13.7 7.3
05:35 1004 29.65 833 24.6 -5.9 21.4 54 -13.7 7.4
05:40 1004 29.65 833 24.6 -5.7 21.7 52 -14 6.8
05:45 1004 29.65 833 24.6 -5.7 21.7 53 -13.9 7
05:50 1004 29.65 833 24.6 -6 21.3 55 -13.6 7.5
05:55 1004 29.65 833 24.6 -6.2 20.8 56 -13.6 7.5
06:00 1004 29.65 833 24.6 -6.2 20.9 54 -14.1 6.6
06:05 1004 29.65 833 24.6 -5.8 21.5 53 -14 6.8
06:10 1004 29.65 833 24.6 -6 21.2 55 -13.7 7.4
06:15 1004 29.65 833 24.6 -6 21.1 53 -14.2 6.4
06:20 1004 29.65 833 24.6 -5.9 21.4 53 -14.1 6.7
06:25 1004 29.65 833 24.6 -6 21.3 53 -14.1 6.5
06:30 1004 29.65 833 24.6 -5.8 21.6 51 -14.5 6
06:35 1004 29.65 833 24.6 -5.9 21.3 51 -14.5 6
06:40 1004 29.65 833 24.6 -6 21.3 52 -14.4 6
06:45 1004 29.65 833 24.6 -6 21.2 53 -14.2 6.5
06:50 1004 29.65 833 24.6 -6.2 20.8 55 -13.9 7.1
06:55 1004 29.65 833 24.6 -6.5 20.4 55 -14.1 6.6
07:00 1004 29.65 833 24.6 -6.4 20.5 56 -13.9 7.1
07:05 1004 29.65 833 24.6 -6.2 20.8 53 -14.3 6.2
07:10 1004 29.65 833 24.6 -5.8 21.5 52 -14.3 6.3
07:15 1004 29.65 833 24.6 -5.8 21.6 49 -14.8 5.4
07:20 1004 29.65 833 24.6 -5.7 21.8 51 -14.2 6.4
07:25 1004 29.65 833 24.6 -5.6 21.9 48 -14.9 5.2
07:30 1004 29.65 833 24.6 -5.4 22.2 49 -14.6 5.8
07:35 1004 29.65 833 24.6 -5.5 22.1 49 -14.6 5.6
07:40 1004 29.65 833 24.6 -5.5 22.1 51 -14.2 6.4
07:45 1004 29.65 833 24.6 -5.7 21.8 50 -14.5 5.8
07:50 1004 29.65 833 24.6 -5.4 22.3 46 -15.2 4.7
07:55 1004 29.65 833 24.6 -5.1 22.9 46 -15 4.9
08:00 1004 29.65 833 24.6 -4.9 23.1 42 -15.9 3.5
08:05 1004 29.65 833 24.6 -4.8 23.4 45 -15.1 4.8
08:10 1004 29.65 833 24.6 -4.9 23.3 40 -16.4 2.5
08:15 1004 29.65 833 24.6 -4.4 24.2 40 -15.9 3.4
08:20 1004 29.65 833 24.6 -4 24.7 41 -15.6 4
08:25 1004 29.65 833 24.6 -4.2 24.4 40 -15.8 3.5
08:30 1004 29.65 833 24.6 -4.3 24.2 42 -15.5 4.1
08:35 1004 29.65 833 24.6 -4.3 24.3 38 -16.5 2.4
08:40 1004 29.65 833 24.6 -4.2 24.5 40 -16 3.2
08:45 1004 29.65 833 24.6 -4.2 24.5 42 -15.4 4.3
08:50 1004 29.65 833 24.6 -4.4 24.1 41 -15.7 3.7
08:55 1004 29.65 833 24.6 -4.4 24 41 -15.8 3.5
09:00 1004 29.65 833 24.6 -4.4 24.1 41 -15.9 3.4
09:05 1004 29.65 834 24.63 -4.3 24.2 45 -14.6 5.8
09:10 1004 29.65 834 24.63 -4.5 23.8 44 -15 4.9
09:15 1005 29.68 834 24.63 -4.7 23.5 45 -15 5
09:20 1005 29.68 834 24.63 -4.9 23.1 47 -14.7 5.5
09:25 1005 29.68 834 24.63 -5.3 22.6 50 -14.2 6.5
09:30 1005 29.68 834 24.63 -5.4 22.3 47 -14.9 5.2
09:35 1005 29.68 834 24.63 -5.1 22.8 47 -14.8 5.4
09:40 1005 29.68 834 24.63 -5 23 45 -15.1 4.8
09:45 1005 29.68 834 24.63 -4.9 23.2 46 -14.7 5.5
09:50 1005 29.68 834 24.63 -5.1 22.9 50 -13.9 6.9
09:55 1005 29.68 834 24.63 -5.1 22.7 51 -13.8 7.1
10:00 1005 29.68 834 24.63 -5.2 22.6 50 -14 6.8
10:05 1005 29.68 834 24.63 -5.2 22.6 48 -14.7 5.5
10:10 1005 29.68 834 24.63 -5.2 22.7 48 -14.4 6
10:15 1005 29.68 834 24.63 -5.1 22.8 45 -15.2 4.7
10:20 1005 29.68 834 24.63 -4.9 23.1 48 -14.4 6.1
10:25 1005 29.68 834 24.63 -4.6 23.7 44 -15.2 4.6
10:30 1005 29.68 834 24.63 -4.3 24.4 43 -15 4.9
10:35 1005 29.68 834 24.63 -4.2 24.5 41 -15.5 4.1
10:40 1005 29.68 834 24.63 -4.1 24.7 43 -14.9 5.2
10:45 1005 29.68 834 24.63 -4 24.7 44 -14.6 5.7
10:50 1005 29.68 835 24.66 -4.5 24 49 -13.6 7.6
10:55 1005 29.68 835 24.66 -4.7 23.5 50 -13.7 7.3
11:00 1005 29.68 835 24.66 -4.6 23.7 51 -13.4 7.9
11:05 1006 29.71 835 24.66 -4.3 24.3 49 -13.4 7.9
11:10 1006 29.71 835 24.66 -4.1 24.5 49 -13.4 7.9
11:15 1006 29.71 835 24.66 -4 24.8 48 -13.6 7.6
11:20 1006 29.71 835 24.66 -3.9 25.1 46 -13.9 7
11:25 1006 29.71 835 24.66 -3.7 25.4 45 -13.8 7.1
11:30 1006 29.71 835 24.66 -3.6 25.4 44 -14.1 6.6
11:35 1006 29.71 835 24.66 -3.7 25.3 44 -14.3 6.2
11:40 1006 29.71 835 24.66 -3.7 25.3 45 -14 6.9
11:45 1006 29.71 835 24.66 -3.8 25.2 44 -14.4 6
11:50 1006 29.71 835 24.66 -3.8 25.1 44 -14.3 6.2
11:55 1006 29.71 835 24.66 -3.8 25.2 44 -14.3 6.2
12:00 1006 29.71 835 24.66 -3.6 25.4 44 -14.3 6.3
12:05 1006 29.71 835 24.66 -3.5 25.7 44 -14 6.8
12:10 1006 29.71 835 24.66 -3.3 26.1 44 -13.7 7.3
12:15 1006 29.71 835 24.66 -3 26.6 44 -13.6 7.6
12:20 1006 29.71 835 24.66 -2.6 27.2 42 -13.9 6.9
12:25 1006 29.71 835 24.66 -2.5 27.5 46 -12.7 9.1
12:30 1006 29.71 835 24.66 -2.8 26.9 46 -12.9 8.8
12:35 1006 29.71 835 24.66 -3.3 26.1 47 -13.2 8.2
12:40 1006 29.71 835 24.66 -3.1 26.4 45 -13.4 7.9
12:45 1006 29.71 835 24.66 -3.3 26.2 45 -13.5 7.6
12:50 1005 29.68 835 24.66 -3.5 25.7 47 -13.4 7.9
12:55 1005 29.68 835 24.66 -3.3 26.1 45 -13.6 7.5
13:00 1005 29.68 835 24.66 -3 26.6 45 -13.3 8
13:05 1005 29.68 835 24.66 -2.7 27.2 46 -12.9 8.8
13:10 1005 29.68 835 24.66 -2.4 27.6 43 -13.5 7.7
13:15 1005 29.68 834 24.63 -2.2 28 39 -14.4 6.1
13:20 1005 29.68 834 24.63 -2.5 27.5 40 -14.2 6.4
13:25 1005 29.68 834 24.63 -2.7 27.1 41 -14.3 6.3
13:30 1005 29.68 834 24.63 -2.7 27.1 41 -14.4 6.2
13:35 1005 29.68 834 24.63 -2.5 27.5 41 -14.1 6.6
13:40 1005 29.68 834 24.63 -2.2 28 42 -13.6 7.5
13:45 1005 29.68 834 24.63 -1.8 28.7 41 -13.6 7.6
13:50 1005 29.68 834 24.63 -1.7 28.9 43 -12.9 8.8
13:55 1005 29.68 834 24.63 -1.8 28.7 43 -12.9 8.7
14:00 1005 29.68 834 24.63 -1.5 29.4 42 -12.9 8.9
14:05 1005 29.68 834 24.63 -1.2 29.9 41 -12.7 9.1
14:10 1005 29.68 834 24.63 -1.2 29.9 42 -12.5 9.4
14:15 1005 29.68 834 24.63 -1.2 29.8 41 -12.8 8.9
14:20 1005 29.68 834 24.63 -0.9 30.4 39 -13.1 8.4
14:25 1005 29.68 834 24.63 -0.8 30.6 42 -12.1 10.2
14:30 1005 29.68 834 24.63 -1.6 29.1 39 -13.7 7.3
14:35 1005 29.68 834 24.63 -2.1 28.2 43 -13.2 8.2
14:40 1005 29.68 834 24.63 -2.3 27.9 42 -13.5 7.8
14:45 1005 29.68 834 24.63 -1.4 29.5 39 -13.7 7.4
14:50 1005 29.68 834 24.63 -1.3 29.7 40 -13.4 7.9
14:55 1005 29.68 834 24.63 -2.1 28.2 40 -13.9 7
15:00 1005 29.68 834 24.63 -1.5 29.3 39 -13.8 7.2
15:05 1005 29.68 834 24.63 -0.9 30.4 36 -14.3 6.3
15:10 1005 29.68 834 24.63 -1.9 28.5 38 -14.5 5.9
15:15 1005 29.68 834 24.63 -1.8 28.8 42 -13 8.6
15:20 1005 29.68 834 24.63 -1.6 29 38 -14.2 6.4
15:25 1005 29.68 834 24.63 -1 30.2 35 -14.7 5.5
15:30 1005 29.68 834 24.63 -1.5 29.3 36 -14.6 5.7
15:35 1005 29.68 834 24.63 -0.9 30.3 36 -14.4 6.1
15:40 1005 29.68 834 24.63 -0.7 30.8 33 -15 4.9
15:45 1005 29.68 835 24.66 -0.7 30.8 34 -14.7 5.6
15:50 1005 29.68 835 24.66 -0.1 31.7 33 -14.5 6
15:55 1005 29.68 835 24.66 -0.1 31.9 34 -14.3 6.2
16:00 1005 29.68 835 24.66 -0.6 31 34 -14.6 5.6
16:05 1005 29.68 835 24.66 -1.1 30.1 35 -14.6 5.7
16:10 1005 29.68 835 24.66 -1.6 29.1 37 -14.3 6.2
16:15 1005 29.68 835 24.66 -1.6 29.1 37 -14.6 5.7
16:20 1006 29.71 835 24.66 -1.7 28.9 39 -13.8 7.1
16:25 1006 29.71 835 24.66 -1.9 28.7 41 -13.6 7.6
16:30 1006 29.71 835 24.66 -1.9 28.6 39 -14.2 6.5
16:35 1006 29.71 835 24.66 -2 28.4 40 -13.9 6.9
16:40 1006 29.71 835 24.66 -2.2 28.1 41 -13.8 7.2
16:45 1006 29.71 835 24.66 -2.3 27.9 41 -13.9 7
16:50 1006 29.71 835 24.66 -2.4 27.7 41 -13.8 7.1
16:55 1006 29.71 835 24.66 -2.7 27.1 42 -13.8 7.1
17:00 1006 29.71 835 24.66 -3.3 26.1 45 -13.7 7.4
17:05 1006 29.71 835 24.66 -3.5 25.7 46 -13.5 7.8
17:10 1006 29.71 835 24.66 -3.5 25.8 46 -13.4 7.9
17:15 1006 29.71 835 24.66 -3.5 25.7 48 -13.1 8.5
17:20 1006 29.71 835 24.66 -4.2 24.5 48 -13.6 7.5
17:25 1006 29.71 835 24.66 -4.3 24.2 48 -13.7 7.4
17:30 1006 29.71 835 24.66 -4.4 24.1 50 -13.2 8.2
17:35 1006 29.71 835 24.66 -4.6 23.7 50 -13.5 7.8
17:40 1006 29.71 835 24.66 -4.6 23.7 51 -13.2 8.2
17:45 1006 29.71 835 24.66 -4.7 23.5 50 -13.6 7.6
17:50 1006 29.71 835 24.66 -4.7 23.5 53 -12.9 8.8
17:55 1006 29.71 835 24.66 -4.9 23.1 53 -13.2 8.3
18:00 1006 29.71 835 24.66 -5.2 22.7 54 -13.1 8.5
18:05 1006 29.71 835 24.66 -5.3 22.5 55 -12.9 8.7
18:10 1006 29.71 835 24.66 -5.4 22.3 52 -13.8 7.2
18:15 1006 29.71 835 24.66 -5.5 22.1 56 -13 8.6
18:20 1006 29.71 836 24.69 -5.8 21.6 55 -13.4 7.8
18:25 1006 29.71 836 24.69 -5.6 21.9 56 -13.1 8.4
18:30 1007 29.74 836 24.69 -5.3 22.5 52 -13.8 7.2
18:35 1007 29.74 836 24.69 -5.1 22.8 54 -13 8.7
18:40 1007 29.74 836 24.69 -5.7 21.8 56 -13.2 8.3
18:45 1007 29.74 836 24.69 -6.3 20.7 59 -13.1 8.5
18:50 1007 29.74 836 24.69 -6.8 19.8 60 -13.3 8
18:55 1007 29.74 836 24.69 -6.9 19.6 58 -13.8 7.1
19:00 1007 29.74 836 24.69 -6.8 19.7 58 -13.8 7.1
19:05 1007 29.74 836 24.69 -6.9 19.6 58 -13.9 7
19:10 1007 29.74 836 24.69 -6.9 19.5 59 -13.7 7.3
19:15 1007 29.74 836 24.69 -7.1 19.2 60 -13.6 7.5
19:20 1007 29.74 836 24.69 -7.3 18.9 61 -13.5 7.6
19:25 1007 29.74 836 24.69 -7.3 18.9 60 -13.8 7.1
19:30 1007 29.74 836 24.69 -7.1 19.3 57 -14.3 6.3
19:35 1007 29.74 836 24.69 -6.8 19.7 55 -14.4 6.2
19:40 1007 29.74 836 24.69 -6.9 19.6 58 -13.8 7.1
19:45 1007 29.74 836 24.69 -6.7 20 58 -13.6 7.5
19:50 1007 29.74 836 24.69 -6.8 19.8 61 -13.2 8.3
19:55 1007 29.74 836 24.69 -6.9 19.7 61 -13.1 8.4
20:00 1007 29.74 836 24.69 -6.7 19.9 60 -13.2 8.2
20:05 1007 29.74 836 24.69 -6.7 20 60 -13.3 8.1
20:10 1007 29.74 836 24.69 -6.9 19.5 60 -13.4 8
20:15 1007 29.74 836 24.69 -7.1 19.3 60 -13.5 7.7
20:20 1007 29.74 836 24.69 -7 19.4 60 -13.5 7.7
20:25 1007 29.74 836 24.69 -6.8 19.7 59 -13.5 7.6
20:30 1007 29.74 836 24.69 -6.9 19.6 60 -13.5 7.8
20:35 1007 29.74 836 24.69 -6.9 19.6 60 -13.4 7.8
20:40 1007 29.74 836 24.69 -6.7 19.9 59 -13.5 7.6
20:45 1007 29.74 836 24.69 -6.6 20.2 59 -13.3 8
20:50 1007 29.74 836 24.69 -6.8 19.7 59 -13.5 7.8
20:55 1007 29.74 836 24.69 -6.7 19.9 58 -13.7 7.4
21:00 1007 29.74 836 24.69 -6.7 20 59 -13.4 7.9
21:05 1007 29.74 836 24.69 -6.6 20 58 -13.6 7.4
21:10 1007 29.74 836 24.69 -6.4 20.4 57 -13.6 7.6
21:15 1007 29.74 836 24.69 -6.3 20.6 57 -13.5 7.7
21:20 1007 29.74 837 24.72 -6.3 20.6 58 -13.4 7.9
21:25 1007 29.74 837 24.72 -6.4 20.4 60 -12.9 8.7
21:30 1007 29.74 837 24.72 -6.6 20.1 59 -13.4 7.9
21:35 1007 29.74 836 24.69 -6.4 20.4 58 -13.3 8
21:40 1007 29.74 837 24.72 -6.4 20.4 58 -13.3 8
21:45 1007 29.74 837 24.72 -6.4 20.5 58 -13.3 8
21:50 1007 29.74 837 24.72 -6.3 20.7 57 -13.4 7.9
21:55 1007 29.74 837 24.72 -6.4 20.6 59 -13 8.5
22:00 1007 29.74 837 24.72 -6.4 20.4 59 -13.2 8.2
22:05 1007 29.74 837 24.72 -6.5 20.4 60 -13 8.5
22:10 1007 29.74 837 24.72 -6.5 20.4 59 -13.2 8.2
22:15 1007 29.74 837 24.72 -6.3 20.6 58 -13.4 8
22:20 1007 29.74 837 24.72 -6.1 21.1 56 -13.6 7.5
22:25 1007 29.74 837 24.72 -5.9 21.4 55 -13.5 7.8
22:30 1007 29.74 837 24.72 -5.9 21.4 56 -13.3 8.1
22:35 1007 29.74 837 24.72 -6 21.3 57 -13.2 8.3
22:40 1007 29.74 837 24.72 -6 21.2 57 -13.3 8.1
22:45 1007 29.74 837 24.72 -6.1 21.1 58 -13.1 8.4
22:50 1007 29.74 837 24.72 -6.1 21 58 -13 8.5
22:55 1007 29.74 837 24.72 -6.1 21.1 59 -12.8 8.9
23:00 1007 29.74 837 24.72 -6 21.1 60 -12.6 9.4
23:05 1007 29.74 837 24.72 -5.9 21.3 59 -12.8 9
23:10 1007 29.74 837 24.72 -5.9 21.4 59 -12.7 9.2
23:15 1007 29.74 837 24.72 -6.1 21.1 59 -12.9 8.8
23:20 1007 29.74 837 24.72 -6.2 20.8 60 -12.8 8.9
23:25 1008 29.77 837 24.72 -6.2 20.8 60 -12.7 9.1
23:30 1008 29.77 837 24.72 -6.2 20.9 61 -12.6 9.3
23:35 1008 29.77 837 24.72 -6.1 20.9 61 -12.5 9.5
23:40 1008 29.77 837 24.72 -6.1 21.1 61 -12.4 9.7
23:45 1008 29.77 837 24.72 -6 21.2 62 -12.2 10.1
23:50 1008 29.77 837 24.72 -6 21.1 63 -12.1 10.3
23:55 1008 29.77 837 24.72 -6 21.3 63 -11.9 10.6
24:00 1008 29.77 837 24.72 -5.9 21.3 64 -11.7 10.9